sensor_id;sensor_type;location;lat;lon;timestamp;temperature;humidity
14142;DHT22;7151;52.246;4.820;2023-05-27T00:01:22;18.30;54.70
14142;DHT22;7151;52.246;4.820;2023-05-27T00:03:47;18.30;54.70
14142;DHT22;7151;52.246;4.820;2023-05-27T00:06:13;18.30;54.80
14142;DHT22;7151;52.246;4.820;2023-05-27T00:08:38;18.20;54.70
14142;DHT22;7151;52.246;4.820;2023-05-27T00:11:04;18.20;54.80
14142;DHT22;7151;52.246;4.820;2023-05-27T00:13:30;18.10;54.80
14142;DHT22;7151;52.246;4.820;2023-05-27T00:15:55;18.10;54.90
14142;DHT22;7151;52.246;4.820;2023-05-27T00:18:21;18.10;54.90
14142;DHT22;7151;52.246;4.820;2023-05-27T00:20:47;18.00;55.00
14142;DHT22;7151;52.246;4.820;2023-05-27T00:23:13;18.00;55.00
14142;DHT22;7151;52.246;4.820;2023-05-27T00:25:38;18.00;55.10
14142;DHT22;7151;52.246;4.820;2023-05-27T00:28:04;17.90;55.10
14142;DHT22;7151;52.246;4.820;2023-05-27T00:30:30;17.90;55.20
14142;DHT22;7151;52.246;4.820;2023-05-27T00:32:56;17.80;55.20
14142;DHT22;7151;52.246;4.820;2023-05-27T00:35:21;17.80;55.30
14142;DHT22;7151;52.246;4.820;2023-05-27T00:37:47;17.80;55.40
14142;DHT22;7151;52.246;4.820;2023-05-27T00:40:14;17.70;55.40
14142;DHT22;7151;52.246;4.820;2023-05-27T00:42:40;17.70;55.40
14142;DHT22;7151;52.246;4.820;2023-05-27T00:45:06;17.70;55.50
14142;DHT22;7151;52.246;4.820;2023-05-27T00:47:32;17.60;55.50
14142;DHT22;7151;52.246;4.820;2023-05-27T00:50:03;17.60;55.60
14142;DHT22;7151;52.246;4.820;2023-05-27T00:52:29;17.60;55.70
14142;DHT22;7151;52.246;4.820;2023-05-27T00:54:55;17.50;55.70
14142;DHT22;7151;52.246;4.820;2023-05-27T00:57:21;17.50;55.80
14142;DHT22;7151;52.246;4.820;2023-05-27T00:59:47;17.50;55.80
14142;DHT22;7151;52.246;4.820;2023-05-27T01:02:12;17.40;55.90
14142;DHT22;7151;52.246;4.820;2023-05-27T01:04:38;17.40;55.90
14142;DHT22;7151;52.246;4.820;2023-05-27T01:07:14;17.40;56.00
14142;DHT22;7151;52.246;4.820;2023-05-27T01:09:53;17.40;56.10
14142;DHT22;7151;52.246;4.820;2023-05-27T01:15:09;17.30;56.30
14142;DHT22;7151;52.246;4.820;2023-05-27T01:17:35;17.20;56.20
14142;DHT22;7151;52.246;4.820;2023-05-27T01:20:03;17.20;56.30
14142;DHT22;7151;52.246;4.820;2023-05-27T01:22:35;17.20;56.40
14142;DHT22;7151;52.246;4.820;2023-05-27T01:25:01;17.20;56.40
14142;DHT22;7151;52.246;4.820;2023-05-27T01:27:28;17.20;56.50
14142;DHT22;7151;52.246;4.820;2023-05-27T01:29:54;17.20;56.60
14142;DHT22;7151;52.246;4.820;2023-05-27T01:35:24;17.10;56.70
14142;DHT22;7151;52.246;4.820;2023-05-27T01:37:52;17.10;56.80
14142;DHT22;7151;52.246;4.820;2023-05-27T01:40:19;17.00;56.70
14142;DHT22;7151;52.246;4.820;2023-05-27T01:42:46;17.00;56.70
14142;DHT22;7151;52.246;4.820;2023-05-27T01:45:12;17.00;56.90
14142;DHT22;7151;52.246;4.820;2023-05-27T01:47:38;17.00;56.90
14142;DHT22;7151;52.246;4.820;2023-05-27T01:50:04;17.00;57.00
14142;DHT22;7151;52.246;4.820;2023-05-27T01:52:30;17.00;57.00
14142;DHT22;7151;52.246;4.820;2023-05-27T01:54:56;16.90;57.00
14142;DHT22;7151;52.246;4.820;2023-05-27T01:57:23;16.90;57.00
14142;DHT22;7151;52.246;4.820;2023-05-27T01:59:49;16.90;57.10
14142;DHT22;7151;52.246;4.820;2023-05-27T02:02:15;16.80;57.20
14142;DHT22;7151;52.246;4.820;2023-05-27T02:04:41;16.80;57.20
14142;DHT22;7151;52.246;4.820;2023-05-27T02:07:06;16.80;57.20
14142;DHT22;7151;52.246;4.820;2023-05-27T02:09:32;16.70;57.20
14142;DHT22;7151;52.246;4.820;2023-05-27T02:11:57;16.70;57.30
14142;DHT22;7151;52.246;4.820;2023-05-27T02:14:23;16.70;57.40
14142;DHT22;7151;52.246;4.820;2023-05-27T02:16:49;16.70;57.50
14142;DHT22;7151;52.246;4.820;2023-05-27T02:19:15;16.70;57.60
14142;DHT22;7151;52.246;4.820;2023-05-27T02:21:40;16.70;57.60
14142;DHT22;7151;52.246;4.820;2023-05-27T02:24:06;16.60;57.70
14142;DHT22;7151;52.246;4.820;2023-05-27T02:26:32;16.60;57.70
14142;DHT22;7151;52.246;4.820;2023-05-27T02:28:57;16.60;57.80
14142;DHT22;7151;52.246;4.820;2023-05-27T02:31:23;16.60;57.80
14142;DHT22;7151;52.246;4.820;2023-05-27T02:33:48;16.60;57.80
14142;DHT22;7151;52.246;4.820;2023-05-27T02:36:14;16.50;57.80
14142;DHT22;7151;52.246;4.820;2023-05-27T02:38:40;16.50;57.90
14142;DHT22;7151;52.246;4.820;2023-05-27T02:41:05;16.50;57.90
14142;DHT22;7151;52.246;4.820;2023-05-27T02:43:31;16.50;58.00
14142;DHT22;7151;52.246;4.820;2023-05-27T02:45:56;16.50;58.00
14142;DHT22;7151;52.246;4.820;2023-05-27T02:48:22;16.50;58.60
14142;DHT22;7151;52.246;4.820;2023-05-27T02:50:48;16.40;58.10
14142;DHT22;7151;52.246;4.820;2023-05-27T02:53:13;16.40;58.20
14142;DHT22;7151;52.246;4.820;2023-05-27T02:55:39;16.40;58.20
14142;DHT22;7151;52.246;4.820;2023-05-27T02:58:05;16.40;58.30
14142;DHT22;7151;52.246;4.820;2023-05-27T03:00:33;16.30;58.30
14142;DHT22;7151;52.246;4.820;2023-05-27T03:02:59;16.30;58.30
14142;DHT22;7151;52.246;4.820;2023-05-27T03:05:25;16.30;58.40
14142;DHT22;7151;52.246;4.820;2023-05-27T03:07:50;16.30;58.40
14142;DHT22;7151;52.246;4.820;2023-05-27T03:10:16;16.30;58.50
14142;DHT22;7151;52.246;4.820;2023-05-27T03:12:42;16.20;58.50
14142;DHT22;7151;52.246;4.820;2023-05-27T03:15:07;16.20;58.60
14142;DHT22;7151;52.246;4.820;2023-05-27T03:17:36;16.20;58.60
14142;DHT22;7151;52.246;4.820;2023-05-27T03:20:03;16.20;58.70
14142;DHT22;7151;52.246;4.820;2023-05-27T03:22:31;16.20;58.80
14142;DHT22;7151;52.246;4.820;2023-05-27T03:24:56;16.20;58.80
14142;DHT22;7151;52.246;4.820;2023-05-27T03:27:22;16.20;58.90
14142;DHT22;7151;52.246;4.820;2023-05-27T03:29:48;16.10;58.90
14142;DHT22;7151;52.246;4.820;2023-05-27T03:32:13;16.10;58.90
14142;DHT22;7151;52.246;4.820;2023-05-27T03:34:39;16.10;59.00
14142;DHT22;7151;52.246;4.820;2023-05-27T03:37:05;16.10;59.00
14142;DHT22;7151;52.246;4.820;2023-05-27T03:39:30;16.00;59.10
14142;DHT22;7151;52.246;4.820;2023-05-27T03:41:56;16.00;59.10
14142;DHT22;7151;52.246;4.820;2023-05-27T03:44:22;16.00;59.20
14142;DHT22;7151;52.246;4.820;2023-05-27T03:46:48;16.00;59.20
14142;DHT22;7151;52.246;4.820;2023-05-27T03:49:13;16.00;59.30
14142;DHT22;7151;52.246;4.820;2023-05-27T03:51:42;16.00;59.40
14142;DHT22;7151;52.246;4.820;2023-05-27T03:54:07;15.90;59.40
14142;DHT22;7151;52.246;4.820;2023-05-27T03:56:36;15.90;59.50
14142;DHT22;7151;52.246;4.820;2023-05-27T03:59:01;15.90;59.60
14142;DHT22;7151;52.246;4.820;2023-05-27T04:01:27;15.90;59.60
14142;DHT22;7151;52.246;4.820;2023-05-27T04:03:53;15.90;59.70
14142;DHT22;7151;52.246;4.820;2023-05-27T04:06:18;15.90;59.80
14142;DHT22;7151;52.246;4.820;2023-05-27T04:08:44;15.80;59.80
14142;DHT22;7151;52.246;4.820;2023-05-27T04:11:11;15.80;59.90
14142;DHT22;7151;52.246;4.820;2023-05-27T04:13:40;15.80;60.00
14142;DHT22;7151;52.246;4.820;2023-05-27T04:16:06;15.80;60.00
14142;DHT22;7151;52.246;4.820;2023-05-27T04:18:36;15.80;60.20
14142;DHT22;7151;52.246;4.820;2023-05-27T04:21:01;15.80;60.30
14142;DHT22;7151;52.246;4.820;2023-05-27T04:23:27;15.80;61.10
14142;DHT22;7151;52.246;4.820;2023-05-27T04:25:52;15.80;60.40
14142;DHT22;7151;52.246;4.820;2023-05-27T04:28:18;15.80;60.50
14142;DHT22;7151;52.246;4.820;2023-05-27T04:30:44;15.70;60.50
14142;DHT22;7151;52.246;4.820;2023-05-27T04:33:11;15.70;60.60
14142;DHT22;7151;52.246;4.820;2023-05-27T04:35:38;15.70;60.80
14142;DHT22;7151;52.246;4.820;2023-05-27T04:38:06;15.70;60.90
14142;DHT22;7151;52.246;4.820;2023-05-27T04:40:33;15.70;61.00
14142;DHT22;7151;52.246;4.820;2023-05-27T04:42:59;15.70;61.10
14142;DHT22;7151;52.246;4.820;2023-05-27T04:45:26;15.70;61.20
14142;DHT22;7151;52.246;4.820;2023-05-27T04:47:52;15.70;61.30
14142;DHT22;7151;52.246;4.820;2023-05-27T04:50:17;15.70;61.40
14142;DHT22;7151;52.246;4.820;2023-05-27T04:52:43;15.70;61.50
14142;DHT22;7151;52.246;4.820;2023-05-27T04:55:09;15.70;61.70
14142;DHT22;7151;52.246;4.820;2023-05-27T04:57:35;15.70;61.80
14142;DHT22;7151;52.246;4.820;2023-05-27T05:00:03;15.70;61.90
14142;DHT22;7151;52.246;4.820;2023-05-27T05:02:33;15.70;62.00
14142;DHT22;7151;52.246;4.820;2023-05-27T05:05:07;15.70;62.10
14142;DHT22;7151;52.246;4.820;2023-05-27T05:07:37;15.80;62.30
14142;DHT22;7151;52.246;4.820;2023-05-27T05:10:12;15.80;62.30
14142;DHT22;7151;52.246;4.820;2023-05-27T05:12:38;15.70;62.40
14142;DHT22;7151;52.246;4.820;2023-05-27T05:15:05;15.80;62.50
14142;DHT22;7151;52.246;4.820;2023-05-27T05:17:31;15.70;62.60
14142;DHT22;7151;52.246;4.820;2023-05-27T05:19:56;15.80;62.70
14142;DHT22;7151;52.246;4.820;2023-05-27T05:22:22;15.80;62.70
14142;DHT22;7151;52.246;4.820;2023-05-27T05:24:49;15.80;62.80
14142;DHT22;7151;52.246;4.820;2023-05-27T05:27:15;15.80;62.90
14142;DHT22;7151;52.246;4.820;2023-05-27T05:29:40;15.80;63.00
14142;DHT22;7151;52.246;4.820;2023-05-27T05:32:07;15.80;63.10
14142;DHT22;7151;52.246;4.820;2023-05-27T05:34:34;15.80;63.10
14142;DHT22;7151;52.246;4.820;2023-05-27T05:36:59;15.80;63.10
14142;DHT22;7151;52.246;4.820;2023-05-27T05:39:25;15.90;63.20
14142;DHT22;7151;52.246;4.820;2023-05-27T05:41:50;15.90;63.30
14142;DHT22;7151;52.246;4.820;2023-05-27T05:44:17;15.90;64.00
14142;DHT22;7151;52.246;4.820;2023-05-27T05:46:42;15.90;63.40
14142;DHT22;7151;52.246;4.820;2023-05-27T05:49:08;15.90;63.50
14142;DHT22;7151;52.246;4.820;2023-05-27T05:51:33;15.90;63.50
14142;DHT22;7151;52.246;4.820;2023-05-27T05:53:59;15.90;63.70
14142;DHT22;7151;52.246;4.820;2023-05-27T05:56:25;15.90;63.70
14142;DHT22;7151;52.246;4.820;2023-05-27T05:58:53;16.00;63.80
14142;DHT22;7151;52.246;4.820;2023-05-27T06:01:22;16.00;64.60
14142;DHT22;7151;52.246;4.820;2023-05-27T06:03:48;16.00;64.00
14142;DHT22;7151;52.246;4.820;2023-05-27T06:06:13;16.00;64.00
14142;DHT22;7151;52.246;4.820;2023-05-27T06:08:40;16.00;64.00
14142;DHT22;7151;52.246;4.820;2023-05-27T06:11:06;16.00;64.00
14142;DHT22;7151;52.246;4.820;2023-05-27T06:13:31;16.00;64.00
14142;DHT22;7151;52.246;4.820;2023-05-27T06:15:57;16.00;64.00
14142;DHT22;7151;52.246;4.820;2023-05-27T06:18:22;16.10;64.00
14142;DHT22;7151;52.246;4.820;2023-05-27T06:20:48;16.00;64.10
14142;DHT22;7151;52.246;4.820;2023-05-27T06:23:13;16.00;64.10
14142;DHT22;7151;52.246;4.820;2023-05-27T06:25:39;16.00;64.00
14142;DHT22;7151;52.246;4.820;2023-05-27T06:28:05;16.00;64.00
14142;DHT22;7151;52.246;4.820;2023-05-27T06:30:32;16.00;64.20
14142;DHT22;7151;52.246;4.820;2023-05-27T06:32:58;16.00;64.30
14142;DHT22;7151;52.246;4.820;2023-05-27T06:35:23;15.90;64.40
14142;DHT22;7151;52.246;4.820;2023-05-27T06:37:49;15.90;64.40
14142;DHT22;7151;52.246;4.820;2023-05-27T06:40:14;16.00;64.70
14142;DHT22;7151;52.246;4.820;2023-05-27T06:42:40;15.90;64.80
14142;DHT22;7151;52.246;4.820;2023-05-27T06:45:06;16.00;65.00
14142;DHT22;7151;52.246;4.820;2023-05-27T06:47:32;16.00;65.20
14142;DHT22;7151;52.246;4.820;2023-05-27T06:49:57;16.00;65.30
14142;DHT22;7151;52.246;4.820;2023-05-27T06:52:23;16.10;65.40
14142;DHT22;7151;52.246;4.820;2023-05-27T06:54:49;16.10;65.50
14142;DHT22;7151;52.246;4.820;2023-05-27T06:57:14;16.10;65.50
14142;DHT22;7151;52.246;4.820;2023-05-27T06:59:40;16.10;65.50
14142;DHT22;7151;52.246;4.820;2023-05-27T07:02:06;16.20;65.50
14142;DHT22;7151;52.246;4.820;2023-05-27T07:04:32;16.20;65.50
14142;DHT22;7151;52.246;4.820;2023-05-27T07:06:58;16.30;65.70
14142;DHT22;7151;52.246;4.820;2023-05-27T07:09:23;16.30;65.80
14142;DHT22;7151;52.246;4.820;2023-05-27T07:11:49;16.40;65.70
14142;DHT22;7151;52.246;4.820;2023-05-27T07:14:15;16.40;65.70
14142;DHT22;7151;52.246;4.820;2023-05-27T07:16:40;16.40;65.70
14142;DHT22;7151;52.246;4.820;2023-05-27T07:19:06;16.50;65.70
14142;DHT22;7151;52.246;4.820;2023-05-27T07:21:32;16.50;65.70
14142;DHT22;7151;52.246;4.820;2023-05-27T07:23:57;16.50;65.70
14142;DHT22;7151;52.246;4.820;2023-05-27T07:26:24;16.60;65.70
14142;DHT22;7151;52.246;4.820;2023-05-27T07:28:51;16.60;65.60
14142;DHT22;7151;52.246;4.820;2023-05-27T07:31:17;16.60;65.60
14142;DHT22;7151;52.246;4.820;2023-05-27T07:33:43;16.60;65.60
14142;DHT22;7151;52.246;4.820;2023-05-27T07:36:08;16.70;65.90
14142;DHT22;7151;52.246;4.820;2023-05-27T07:38:34;16.70;65.90
14142;DHT22;7151;52.246;4.820;2023-05-27T07:40:59;16.70;65.90
14142;DHT22;7151;52.246;4.820;2023-05-27T07:43:25;16.80;66.10
14142;DHT22;7151;52.246;4.820;2023-05-27T07:45:50;16.80;66.00
14142;DHT22;7151;52.246;4.820;2023-05-27T07:48:16;16.90;66.00
14142;DHT22;7151;52.246;4.820;2023-05-27T07:50:41;16.90;66.00
14142;DHT22;7151;52.246;4.820;2023-05-27T07:53:08;16.90;65.90
14142;DHT22;7151;52.246;4.820;2023-05-27T07:55:34;17.00;65.90
14142;DHT22;7151;52.246;4.820;2023-05-27T07:57:59;17.00;66.10
14142;DHT22;7151;52.246;4.820;2023-05-27T08:00:25;17.10;66.10
14142;DHT22;7151;52.246;4.820;2023-05-27T08:02:50;17.10;66.10
14142;DHT22;7151;52.246;4.820;2023-05-27T08:05:16;17.10;66.00
14142;DHT22;7151;52.246;4.820;2023-05-27T08:07:41;17.20;66.20
14142;DHT22;7151;52.246;4.820;2023-05-27T08:10:08;17.20;66.20
14142;DHT22;7151;52.246;4.820;2023-05-27T08:12:33;17.30;66.30
14142;DHT22;7151;52.246;4.820;2023-05-27T08:14:59;17.30;66.30
14142;DHT22;7151;52.246;4.820;2023-05-27T08:17:24;17.30;66.40
14142;DHT22;7151;52.246;4.820;2023-05-27T08:19:50;17.40;66.50
14142;DHT22;7151;52.246;4.820;2023-05-27T08:22:16;17.40;66.50
14142;DHT22;7151;52.246;4.820;2023-05-27T08:24:41;17.40;66.40
14142;DHT22;7151;52.246;4.820;2023-05-27T08:27:14;17.50;66.40
14142;DHT22;7151;52.246;4.820;2023-05-27T08:29:40;17.60;66.40
14142;DHT22;7151;52.246;4.820;2023-05-27T08:32:06;17.60;66.40
14142;DHT22;7151;52.246;4.820;2023-05-27T08:34:32;17.70;66.40
14142;DHT22;7151;52.246;4.820;2023-05-27T08:36:57;17.70;66.30
14142;DHT22;7151;52.246;4.820;2023-05-27T08:39:23;17.70;66.20
14142;DHT22;7151;52.246;4.820;2023-05-27T08:41:49;17.80;66.20
14142;DHT22;7151;52.246;4.820;2023-05-27T08:44:16;17.90;66.20
14142;DHT22;7151;52.246;4.820;2023-05-27T08:46:41;17.90;66.30
14142;DHT22;7151;52.246;4.820;2023-05-27T08:49:07;17.90;66.20
14142;DHT22;7151;52.246;4.820;2023-05-27T08:51:36;18.00;66.20
14142;DHT22;7151;52.246;4.820;2023-05-27T08:54:04;18.10;66.20
14142;DHT22;7151;52.246;4.820;2023-05-27T08:56:31;18.10;66.10
14142;DHT22;7151;52.246;4.820;2023-05-27T08:58:58;18.20;66.00
14142;DHT22;7151;52.246;4.820;2023-05-27T09:01:25;18.30;65.80
14142;DHT22;7151;52.246;4.820;2023-05-27T09:03:53;18.30;65.60
14142;DHT22;7151;52.246;4.820;2023-05-27T09:06:19;18.40;66.20
14142;DHT22;7151;52.246;4.820;2023-05-27T09:08:45;18.40;65.30
14142;DHT22;7151;52.246;4.820;2023-05-27T09:11:22;18.50;65.40
14142;DHT22;7151;52.246;4.820;2023-05-27T09:13:48;18.50;65.40
14142;DHT22;7151;52.246;4.820;2023-05-27T09:16:14;18.60;65.50
14142;DHT22;7151;52.246;4.820;2023-05-27T09:18:41;18.60;65.20
14142;DHT22;7151;52.246;4.820;2023-05-27T09:21:07;18.70;65.00
14142;DHT22;7151;52.246;4.820;2023-05-27T09:23:39;18.70;65.00
14142;DHT22;7151;52.246;4.820;2023-05-27T09:26:09;18.80;65.10
14142;DHT22;7151;52.246;4.820;2023-05-27T09:28:36;18.80;65.20
14142;DHT22;7151;52.246;4.820;2023-05-27T09:31:04;18.90;64.90
14142;DHT22;7151;52.246;4.820;2023-05-27T09:33:35;19.00;64.50
14142;DHT22;7151;52.246;4.820;2023-05-27T09:36:03;19.00;64.30
14142;DHT22;7151;52.246;4.820;2023-05-27T09:38:33;19.10;64.50
14142;DHT22;7151;52.246;4.820;2023-05-27T09:40:59;19.10;64.60
14142;DHT22;7151;52.246;4.820;2023-05-27T09:43:26;19.20;64.50
14142;DHT22;7151;52.246;4.820;2023-05-27T09:45:54;19.20;64.20
14142;DHT22;7151;52.246;4.820;2023-05-27T09:48:23;19.30;64.20
14142;DHT22;7151;52.246;4.820;2023-05-27T09:50:49;19.40;64.30
14142;DHT22;7151;52.246;4.820;2023-05-27T09:53:17;19.50;64.40
14142;DHT22;7151;52.246;4.820;2023-05-27T09:55:44;19.50;64.40
14142;DHT22;7151;52.246;4.820;2023-05-27T09:58:10;19.60;64.60
14142;DHT22;7151;52.246;4.820;2023-05-27T10:00:38;19.70;64.70
14142;DHT22;7151;52.246;4.820;2023-05-27T10:03:07;19.80;64.50
14142;DHT22;7151;52.246;4.820;2023-05-27T10:05:33;19.80;64.40
14142;DHT22;7151;52.246;4.820;2023-05-27T10:07:59;19.90;64.30
14142;DHT22;7151;52.246;4.820;2023-05-27T10:10:24;20.00;64.40
14142;DHT22;7151;52.246;4.820;2023-05-27T10:12:51;20.00;64.30
14142;DHT22;7151;52.246;4.820;2023-05-27T10:15:32;20.10;64.40
14142;DHT22;7151;52.246;4.820;2023-05-27T10:18:05;20.20;64.20
14142;DHT22;7151;52.246;4.820;2023-05-27T10:20:38;20.30;64.30
14142;DHT22;7151;52.246;4.820;2023-05-27T10:23:16;20.40;64.30
14142;DHT22;7151;52.246;4.820;2023-05-27T10:25:52;20.40;64.20
14142;DHT22;7151;52.246;4.820;2023-05-27T10:28:31;20.50;63.70
14142;DHT22;7151;52.246;4.820;2023-05-27T10:31:07;20.60;64.00
14142;DHT22;7151;52.246;4.820;2023-05-27T10:33:42;20.60;63.90
14142;DHT22;7151;52.246;4.820;2023-05-27T10:38:35;20.80;63.80
14142;DHT22;7151;52.246;4.820;2023-05-27T10:41:02;20.90;63.70
14142;DHT22;7151;52.246;4.820;2023-05-27T10:43:32;20.90;63.50
14142;DHT22;7151;52.246;4.820;2023-05-27T10:46:09;20.90;63.10
14142;DHT22;7151;52.246;4.820;2023-05-27T10:48:37;21.00;63.20
14142;DHT22;7151;52.246;4.820;2023-05-27T10:51:05;21.10;63.40
14142;DHT22;7151;52.246;4.820;2023-05-27T10:53:32;21.10;63.30
14142;DHT22;7151;52.246;4.820;2023-05-27T10:56:00;21.20;63.20
14142;DHT22;7151;52.246;4.820;2023-05-27T10:58:26;21.20;63.10
14142;DHT22;7151;52.246;4.820;2023-05-27T11:00:53;21.30;62.80
14142;DHT22;7151;52.246;4.820;2023-05-27T11:03:23;21.40;62.80
14142;DHT22;7151;52.246;4.820;2023-05-27T11:06:03;21.40;62.70
14142;DHT22;7151;52.246;4.820;2023-05-27T11:08:31;21.50;62.60
14142;DHT22;7151;52.246;4.820;2023-05-27T11:11:10;21.60;62.50
14142;DHT22;7151;52.246;4.820;2023-05-27T11:13:39;21.70;62.30
14142;DHT22;7151;52.246;4.820;2023-05-27T11:16:06;21.70;62.10
14142;DHT22;7151;52.246;4.820;2023-05-27T11:18:45;21.80;61.90
14142;DHT22;7151;52.246;4.820;2023-05-27T11:21:12;21.90;61.70
14142;DHT22;7151;52.246;4.820;2023-05-27T11:26:15;22.00;61.00
14142;DHT22;7151;52.246;4.820;2023-05-27T11:28:57;22.00;60.70
14142;DHT22;7151;52.246;4.820;2023-05-27T11:31:27;22.10;60.80
14142;DHT22;7151;52.246;4.820;2023-05-27T11:33:53;22.20;60.70
14142;DHT22;7151;52.246;4.820;2023-05-27T11:36:20;22.20;60.50
14142;DHT22;7151;52.246;4.820;2023-05-27T11:41:26;22.30;60.60
14142;DHT22;7151;52.246;4.820;2023-05-27T11:46:22;22.50;60.70
14142;DHT22;7151;52.246;4.820;2023-05-27T11:48:48;22.60;60.60
14142;DHT22;7151;52.246;4.820;2023-05-27T11:51:14;22.70;60.30
14142;DHT22;7151;52.246;4.820;2023-05-27T11:53:48;22.70;60.00
14142;DHT22;7151;52.246;4.820;2023-05-27T11:56:14;22.80;59.80
14142;DHT22;7151;52.246;4.820;2023-05-27T11:58:41;22.90;59.80
14142;DHT22;7151;52.246;4.820;2023-05-27T12:01:06;22.90;59.70
14142;DHT22;7151;52.246;4.820;2023-05-27T12:03:35;23.00;59.70
14142;DHT22;7151;52.246;4.820;2023-05-27T12:06:01;23.10;59.60
14142;DHT22;7151;52.246;4.820;2023-05-27T12:08:27;23.20;59.70
14142;DHT22;7151;52.246;4.820;2023-05-27T12:10:52;23.20;59.60
14142;DHT22;7151;52.246;4.820;2023-05-27T12:13:21;23.30;59.50
14142;DHT22;7151;52.246;4.820;2023-05-27T12:15:49;23.40;59.40
14142;DHT22;7151;52.246;4.820;2023-05-27T12:18:14;23.40;59.10
14142;DHT22;7151;52.246;4.820;2023-05-27T12:20:40;23.50;59.00
14142;DHT22;7151;52.246;4.820;2023-05-27T12:23:06;23.60;58.90
14142;DHT22;7151;52.246;4.820;2023-05-27T12:25:31;23.60;58.90
14142;DHT22;7151;52.246;4.820;2023-05-27T12:27:57;23.70;59.00
14142;DHT22;7151;52.246;4.820;2023-05-27T12:30:23;23.80;59.10
14142;DHT22;7151;52.246;4.820;2023-05-27T12:32:48;23.90;58.90
14142;DHT22;7151;52.246;4.820;2023-05-27T12:35:14;23.90;58.70
14142;DHT22;7151;52.246;4.820;2023-05-27T12:37:39;24.00;58.60
14142;DHT22;7151;52.246;4.820;2023-05-27T12:40:06;24.10;58.40
14142;DHT22;7151;52.246;4.820;2023-05-27T12:42:34;24.20;58.20
14142;DHT22;7151;52.246;4.820;2023-05-27T12:45:00;24.30;58.30
14142;DHT22;7151;52.246;4.820;2023-05-27T12:47:25;24.40;58.10
14142;DHT22;7151;52.246;4.820;2023-05-27T12:49:51;24.50;57.90
14142;DHT22;7151;52.246;4.820;2023-05-27T12:52:16;24.40;57.60
14142;DHT22;7151;52.246;4.820;2023-05-27T12:54:42;24.60;57.50
14142;DHT22;7151;52.246;4.820;2023-05-27T12:57:07;24.70;57.40
14142;DHT22;7151;52.246;4.820;2023-05-27T12:59:36;24.80;57.40
14142;DHT22;7151;52.246;4.820;2023-05-27T13:02:01;24.80;57.40
14142;DHT22;7151;52.246;4.820;2023-05-27T13:04:27;24.90;57.20
14142;DHT22;7151;52.246;4.820;2023-05-27T13:06:53;25.00;56.90
14142;DHT22;7151;52.246;4.820;2023-05-27T13:09:18;25.10;56.90
14142;DHT22;7151;52.246;4.820;2023-05-27T13:11:44;25.10;56.80
14142;DHT22;7151;52.246;4.820;2023-05-27T13:14:10;25.20;56.70
14142;DHT22;7151;52.246;4.820;2023-05-27T13:16:35;25.30;56.60
14142;DHT22;7151;52.246;4.820;2023-05-27T13:19:01;25.40;56.40
14142;DHT22;7151;52.246;4.820;2023-05-27T13:21:27;25.50;56.30
14142;DHT22;7151;52.246;4.820;2023-05-27T13:23:53;25.60;56.20
14142;DHT22;7151;52.246;4.820;2023-05-27T13:26:19;25.70;56.10
14142;DHT22;7151;52.246;4.820;2023-05-27T13:28:47;25.70;55.90
14142;DHT22;7151;52.246;4.820;2023-05-27T13:31:13;25.80;55.70
14142;DHT22;7151;52.246;4.820;2023-05-27T13:33:40;25.90;55.60
14142;DHT22;7151;52.246;4.820;2023-05-27T13:36:06;26.00;55.40
14142;DHT22;7151;52.246;4.820;2023-05-27T13:38:32;26.10;55.40
14142;DHT22;7151;52.246;4.820;2023-05-27T13:40:58;26.10;55.30
14142;DHT22;7151;52.246;4.820;2023-05-27T13:43:25;26.30;55.20
14142;DHT22;7151;52.246;4.820;2023-05-27T13:45:51;26.30;54.90
14142;DHT22;7151;52.246;4.820;2023-05-27T13:48:16;26.40;54.70
14142;DHT22;7151;52.246;4.820;2023-05-27T13:50:42;26.50;54.50
14142;DHT22;7151;52.246;4.820;2023-05-27T13:53:08;26.50;54.30
14142;DHT22;7151;52.246;4.820;2023-05-27T13:55:36;26.60;54.20
14142;DHT22;7151;52.246;4.820;2023-05-27T13:58:01;26.70;53.90
14142;DHT22;7151;52.246;4.820;2023-05-27T14:00:27;26.70;53.70
14142;DHT22;7151;52.246;4.820;2023-05-27T14:02:53;26.80;53.50
14142;DHT22;7151;52.246;4.820;2023-05-27T14:05:20;26.80;53.30
14142;DHT22;7151;52.246;4.820;2023-05-27T14:07:45;26.90;53.10
14142;DHT22;7151;52.246;4.820;2023-05-27T14:10:12;27.00;53.00
14142;DHT22;7151;52.246;4.820;2023-05-27T14:12:37;27.00;53.00
14142;DHT22;7151;52.246;4.820;2023-05-27T14:15:03;27.10;53.10
14142;DHT22;7151;52.246;4.820;2023-05-27T14:17:29;27.10;52.70
14142;DHT22;7151;52.246;4.820;2023-05-27T14:19:56;27.20;52.60
14142;DHT22;7151;52.246;4.820;2023-05-27T14:22:21;27.30;52.60
14142;DHT22;7151;52.246;4.820;2023-05-27T14:24:47;27.30;52.40
14142;DHT22;7151;52.246;4.820;2023-05-27T14:27:13;27.40;52.20
14142;DHT22;7151;52.246;4.820;2023-05-27T14:29:39;27.50;52.00
14142;DHT22;7151;52.246;4.820;2023-05-27T14:32:05;27.50;51.80
14142;DHT22;7151;52.246;4.820;2023-05-27T14:34:31;27.60;51.70
14142;DHT22;7151;52.246;4.820;2023-05-27T14:36:57;27.60;51.60
14142;DHT22;7151;52.246;4.820;2023-05-27T14:39:22;27.70;51.50
14142;DHT22;7151;52.246;4.820;2023-05-27T14:41:48;27.70;51.20
14142;DHT22;7151;52.246;4.820;2023-05-27T14:44:13;27.80;51.60
14142;DHT22;7151;52.246;4.820;2023-05-27T14:46:39;27.90;51.00
14142;DHT22;7151;52.246;4.820;2023-05-27T14:49:05;27.90;50.80
14142;DHT22;7151;52.246;4.820;2023-05-27T14:51:30;28.00;50.60
14142;DHT22;7151;52.246;4.820;2023-05-27T14:53:56;28.10;50.60
14142;DHT22;7151;52.246;4.820;2023-05-27T14:56:21;28.10;50.60
14142;DHT22;7151;52.246;4.820;2023-05-27T14:58:47;28.20;50.30
14142;DHT22;7151;52.246;4.820;2023-05-27T15:01:14;28.20;50.00
14142;DHT22;7151;52.246;4.820;2023-05-27T15:03:40;28.20;49.70
14142;DHT22;7151;52.246;4.820;2023-05-27T15:06:06;28.30;49.50
14142;DHT22;7151;52.246;4.820;2023-05-27T15:08:34;28.30;49.80
14142;DHT22;7151;52.246;4.820;2023-05-27T15:11:00;28.40;49.80
14142;DHT22;7151;52.246;4.820;2023-05-27T15:13:25;28.40;49.60
14142;DHT22;7151;52.246;4.820;2023-05-27T15:15:51;28.50;49.40
14142;DHT22;7151;52.246;4.820;2023-05-27T15:18:17;28.50;49.40
14142;DHT22;7151;52.246;4.820;2023-05-27T15:20:42;28.50;49.30
14142;DHT22;7151;52.246;4.820;2023-05-27T15:23:08;28.60;49.30
14142;DHT22;7151;52.246;4.820;2023-05-27T15:25:36;28.70;49.20
14142;DHT22;7151;52.246;4.820;2023-05-27T15:28:02;28.70;49.10
14142;DHT22;7151;52.246;4.820;2023-05-27T15:30:27;28.70;49.20
14142;DHT22;7151;52.246;4.820;2023-05-27T15:32:53;28.80;49.50
14142;DHT22;7151;52.246;4.820;2023-05-27T15:35:19;28.80;49.90
14142;DHT22;7151;52.246;4.820;2023-05-27T15:37:44;28.80;50.00
14142;DHT22;7151;52.246;4.820;2023-05-27T15:40:10;28.90;49.90
14142;DHT22;7151;52.246;4.820;2023-05-27T15:42:37;28.90;49.60
14142;DHT22;7151;52.246;4.820;2023-05-27T15:45:02;29.00;49.60
14142;DHT22;7151;52.246;4.820;2023-05-27T15:47:28;29.00;49.30
14142;DHT22;7151;52.246;4.820;2023-05-27T15:49:54;29.10;49.10
14142;DHT22;7151;52.246;4.820;2023-05-27T15:52:20;29.00;48.70
14142;DHT22;7151;52.246;4.820;2023-05-27T15:54:45;29.00;48.50
14142;DHT22;7151;52.246;4.820;2023-05-27T15:57:11;29.00;48.30